sensor_id;sensor_type;location;lat;lon;timestamp;temperature;humidity
19058;DHT22;9662;53.612;9.914;2022-10-23T00:00:32;14.60;99.90
19058;DHT22;9662;53.612;9.914;2022-10-23T00:02:59;14.60;99.90
19058;DHT22;9662;53.612;9.914;2022-10-23T00:05:27;14.70;99.90
19058;DHT22;9662;53.612;9.914;2022-10-23T00:07:56;14.70;99.90
19058;DHT22;9662;53.612;9.914;2022-10-23T00:10:25;14.60;99.90
19058;DHT22;9662;53.612;9.914;2022-10-23T00:12:52;14.50;99.90
19058;DHT22;9662;53.612;9.914;2022-10-23T00:15:21;14.60;99.90
19058;DHT22;9662;53.612;9.914;2022-10-23T00:17:49;14.50;99.90
19058;DHT22;9662;53.612;9.914;2022-10-23T00:20:17;14.50;99.90
19058;DHT22;9662;53.612;9.914;2022-10-23T00:22:44;14.60;99.90
19058;DHT22;9662;53.612;9.914;2022-10-23T00:25:12;14.50;99.90
19058;DHT22;9662;53.612;9.914;2022-10-23T00:27:40;14.40;99.90
19058;DHT22;9662;53.612;9.914;2022-10-23T00:30:08;14.50;99.90
19058;DHT22;9662;53.612;9.914;2022-10-23T00:32:36;14.50;99.90
19058;DHT22;9662;53.612;9.914;2022-10-23T00:35:03;14.30;99.90
19058;DHT22;9662;53.612;9.914;2022-10-23T00:37:30;14.40;99.90
19058;DHT22;9662;53.612;9.914;2022-10-23T00:39:57;14.40;99.90
19058;DHT22;9662;53.612;9.914;2022-10-23T00:42:24;14.40;99.90
19058;DHT22;9662;53.612;9.914;2022-10-23T00:45:12;14.30;99.90
19058;DHT22;9662;53.612;9.914;2022-10-23T00:47:40;14.10;99.90
19058;DHT22;9662;53.612;9.914;2022-10-23T00:50:07;14.20;99.90
19058;DHT22;9662;53.612;9.914;2022-10-23T00:52:38;14.20;99.90
19058;DHT22;9662;53.612;9.914;2022-10-23T00:55:06;14.10;99.90
19058;DHT22;9662;53.612;9.914;2022-10-23T00:57:33;14.10;99.90
19058;DHT22;9662;53.612;9.914;2022-10-23T01:00:00;14.20;99.90
19058;DHT22;9662;53.612;9.914;2022-10-23T01:02:26;14.30;99.90
19058;DHT22;9662;53.612;9.914;2022-10-23T01:04:54;14.10;99.90
19058;DHT22;9662;53.612;9.914;2022-10-23T01:07:26;14.20;99.90
19058;DHT22;9662;53.612;9.914;2022-10-23T01:09:58;14.20;99.90
19058;DHT22;9662;53.612;9.914;2022-10-23T01:12:49;14.30;99.90
19058;DHT22;9662;53.612;9.914;2022-10-23T01:15:22;14.30;99.90
19058;DHT22;9662;53.612;9.914;2022-10-23T01:17:54;14.30;99.90
19058;DHT22;9662;53.612;9.914;2022-10-23T01:20:41;14.30;99.90
19058;DHT22;9662;53.612;9.914;2022-10-23T01:23:30;14.30;99.90
19058;DHT22;9662;53.612;9.914;2022-10-23T01:26:17;15.10;99.90
19058;DHT22;9662;53.612;9.914;2022-10-23T01:28:49;14.30;99.90
19058;DHT22;9662;53.612;9.914;2022-10-23T01:31:23;14.40;99.90
19058;DHT22;9662;53.612;9.914;2022-10-23T01:33:54;14.30;99.90
19058;DHT22;9662;53.612;9.914;2022-10-23T01:36:26;14.30;99.90
19058;DHT22;9662;53.612;9.914;2022-10-23T01:38:57;14.20;99.90
19058;DHT22;9662;53.612;9.914;2022-10-23T01:41:30;14.20;99.90
19058;DHT22;9662;53.612;9.914;2022-10-23T01:44:05;14.30;99.90
19058;DHT22;9662;53.612;9.914;2022-10-23T01:46:34;14.30;99.90
19058;DHT22;9662;53.612;9.914;2022-10-23T01:49:04;14.20;99.90
19058;DHT22;9662;53.612;9.914;2022-10-23T01:51:32;14.20;99.90
19058;DHT22;9662;53.612;9.914;2022-10-23T01:54:01;14.30;99.90
19058;DHT22;9662;53.612;9.914;2022-10-23T01:56:31;14.30;99.90
19058;DHT22;9662;53.612;9.914;2022-10-23T01:59:03;14.20;99.90
19058;DHT22;9662;53.612;9.914;2022-10-23T02:01:32;14.30;99.90
19058;DHT22;9662;53.612;9.914;2022-10-23T02:04:02;14.30;99.90
19058;DHT22;9662;53.612;9.914;2022-10-23T02:06:31;14.30;99.90
19058;DHT22;9662;53.612;9.914;2022-10-23T02:08:58;14.30;99.90
19058;DHT22;9662;53.612;9.914;2022-10-23T02:11:24;14.40;99.90
19058;DHT22;9662;53.612;9.914;2022-10-23T02:13:56;14.30;99.90
19058;DHT22;9662;53.612;9.914;2022-10-23T02:16:31;15.00;99.90
19058;DHT22;9662;53.612;9.914;2022-10-23T02:19:10;14.30;99.90
19058;DHT22;9662;53.612;9.914;2022-10-23T02:21:47;14.30;99.90
19058;DHT22;9662;53.612;9.914;2022-10-23T02:24:18;13.80;99.90
19058;DHT22;9662;53.612;9.914;2022-10-23T02:26:51;13.90;99.90
19058;DHT22;9662;53.612;9.914;2022-10-23T02:29:22;14.00;99.90
19058;DHT22;9662;53.612;9.914;2022-10-23T02:31:52;14.00;99.90
19058;DHT22;9662;53.612;9.914;2022-10-23T02:34:19;14.00;99.90
19058;DHT22;9662;53.612;9.914;2022-10-23T02:36:46;14.30;99.90
19058;DHT22;9662;53.612;9.914;2022-10-23T02:39:13;14.10;99.90
19058;DHT22;9662;53.612;9.914;2022-10-23T02:41:43;14.00;99.90
19058;DHT22;9662;53.612;9.914;2022-10-23T02:44:24;13.90;99.90
19058;DHT22;9662;53.612;9.914;2022-10-23T02:47:03;14.10;99.90
19058;DHT22;9662;53.612;9.914;2022-10-23T02:49:36;14.00;99.90
19058;DHT22;9662;53.612;9.914;2022-10-23T02:52:10;14.00;99.90
19058;DHT22;9662;53.612;9.914;2022-10-23T02:54:50;14.00;99.90
19058;DHT22;9662;53.612;9.914;2022-10-23T02:57:24;14.00;99.90
19058;DHT22;9662;53.612;9.914;2022-10-23T03:00:00;13.90;99.90
19058;DHT22;9662;53.612;9.914;2022-10-23T03:02:36;13.90;99.90
19058;DHT22;9662;53.612;9.914;2022-10-23T03:05:07;13.80;99.90
19058;DHT22;9662;53.612;9.914;2022-10-23T03:07:35;13.90;99.90
19058;DHT22;9662;53.612;9.914;2022-10-23T03:10:02;13.90;99.90
19058;DHT22;9662;53.612;9.914;2022-10-23T03:12:29;14.00;99.90
19058;DHT22;9662;53.612;9.914;2022-10-23T03:14:56;14.10;99.90
19058;DHT22;9662;53.612;9.914;2022-10-23T03:17:23;14.00;99.90
19058;DHT22;9662;53.612;9.914;2022-10-23T03:19:52;14.10;99.90
19058;DHT22;9662;53.612;9.914;2022-10-23T03:22:18;14.10;99.90
19058;DHT22;9662;53.612;9.914;2022-10-23T03:24:45;14.10;99.90
19058;DHT22;9662;53.612;9.914;2022-10-23T03:27:12;14.00;99.90
19058;DHT22;9662;53.612;9.914;2022-10-23T03:29:39;14.00;99.90
19058;DHT22;9662;53.612;9.914;2022-10-23T03:32:05;13.90;99.90
19058;DHT22;9662;53.612;9.914;2022-10-23T03:34:32;13.90;99.90
19058;DHT22;9662;53.612;9.914;2022-10-23T03:37:01;13.70;99.90
19058;DHT22;9662;53.612;9.914;2022-10-23T03:39:28;13.80;99.90
19058;DHT22;9662;53.612;9.914;2022-10-23T03:41:54;13.80;99.90
19058;DHT22;9662;53.612;9.914;2022-10-23T03:44:21;14.50;99.90
19058;DHT22;9662;53.612;9.914;2022-10-23T03:46:48;13.70;99.90
19058;DHT22;9662;53.612;9.914;2022-10-23T03:49:15;13.80;99.90
19058;DHT22;9662;53.612;9.914;2022-10-23T03:51:41;14.50;99.90
19058;DHT22;9662;53.612;9.914;2022-10-23T03:54:10;13.80;99.90
19058;DHT22;9662;53.612;9.914;2022-10-23T03:56:37;13.80;99.90
19058;DHT22;9662;53.612;9.914;2022-10-23T03:59:04;13.70;99.90
19058;DHT22;9662;53.612;9.914;2022-10-23T04:01:30;13.70;99.90
19058;DHT22;9662;53.612;9.914;2022-10-23T04:03:57;13.70;99.90
19058;DHT22;9662;53.612;9.914;2022-10-23T04:06:24;13.50;99.90
19058;DHT22;9662;53.612;9.914;2022-10-23T04:08:50;13.70;99.90
19058;DHT22;9662;53.612;9.914;2022-10-23T04:11:18;13.40;99.90
19058;DHT22;9662;53.612;9.914;2022-10-23T04:13:45;13.60;99.90
19058;DHT22;9662;53.612;9.914;2022-10-23T04:16:12;13.60;99.90
19058;DHT22;9662;53.612;9.914;2022-10-23T04:18:39;13.80;99.90
19058;DHT22;9662;53.612;9.914;2022-10-23T04:21:06;13.50;99.90
19058;DHT22;9662;53.612;9.914;2022-10-23T04:23:33;14.00;99.90
19058;DHT22;9662;53.612;9.914;2022-10-23T04:26:00;13.50;99.90
19058;DHT22;9662;53.612;9.914;2022-10-23T04:28:28;14.40;99.90
19058;DHT22;9662;53.612;9.914;2022-10-23T04:30:55;13.40;99.90
19058;DHT22;9662;53.612;9.914;2022-10-23T04:33:22;13.50;99.90
19058;DHT22;9662;53.612;9.914;2022-10-23T04:35:49;13.40;99.90
19058;DHT22;9662;53.612;9.914;2022-10-23T04:38:16;13.40;99.90
19058;DHT22;9662;53.612;9.914;2022-10-23T04:40:42;13.40;99.90
19058;DHT22;9662;53.612;9.914;2022-10-23T04:43:09;13.30;99.90
19058;DHT22;9662;53.612;9.914;2022-10-23T04:45:38;13.00;99.90
19058;DHT22;9662;53.612;9.914;2022-10-23T04:48:05;13.10;99.90
19058;DHT22;9662;53.612;9.914;2022-10-23T04:50:31;13.30;99.90
19058;DHT22;9662;53.612;9.914;2022-10-23T04:52:58;13.20;99.90
19058;DHT22;9662;53.612;9.914;2022-10-23T04:55:25;13.20;99.90
19058;DHT22;9662;53.612;9.914;2022-10-23T04:57:51;13.10;99.90
19058;DHT22;9662;53.612;9.914;2022-10-23T05:00:19;13.10;99.90
19058;DHT22;9662;53.612;9.914;2022-10-23T05:02:47;13.10;99.90
19058;DHT22;9662;53.612;9.914;2022-10-23T05:05:14;12.80;99.90
19058;DHT22;9662;53.612;9.914;2022-10-23T05:07:40;13.00;99.90
19058;DHT22;9662;53.612;9.914;2022-10-23T05:10:08;13.10;99.90
19058;DHT22;9662;53.612;9.914;2022-10-23T05:12:35;13.10;99.90
19058;DHT22;9662;53.612;9.914;2022-10-23T05:15:01;13.10;99.90
19058;DHT22;9662;53.612;9.914;2022-10-23T05:17:31;13.10;99.90
19058;DHT22;9662;53.612;9.914;2022-10-23T05:20:03;13.00;99.90
19058;DHT22;9662;53.612;9.914;2022-10-23T05:22:35;13.00;99.90
19058;DHT22;9662;53.612;9.914;2022-10-23T05:25:03;13.00;99.90
19058;DHT22;9662;53.612;9.914;2022-10-23T05:27:30;13.00;99.90
19058;DHT22;9662;53.612;9.914;2022-10-23T05:29:57;12.90;99.90
19058;DHT22;9662;53.612;9.914;2022-10-23T05:32:24;12.60;99.90
19058;DHT22;9662;53.612;9.914;2022-10-23T05:34:53;12.80;99.90
19058;DHT22;9662;53.612;9.914;2022-10-23T05:37:21;12.90;99.90
19058;DHT22;9662;53.612;9.914;2022-10-23T05:39:48;12.90;99.90
19058;DHT22;9662;53.612;9.914;2022-10-23T05:42:14;12.90;99.90
19058;DHT22;9662;53.612;9.914;2022-10-23T05:44:41;12.90;99.90
19058;DHT22;9662;53.612;9.914;2022-10-23T05:47:08;12.80;99.90
19058;DHT22;9662;53.612;9.914;2022-10-23T05:49:35;12.80;99.90
19058;DHT22;9662;53.612;9.914;2022-10-23T05:52:01;12.90;99.90
19058;DHT22;9662;53.612;9.914;2022-10-23T05:54:29;12.90;99.90
19058;DHT22;9662;53.612;9.914;2022-10-23T05:56:56;12.90;99.90
19058;DHT22;9662;53.612;9.914;2022-10-23T05:59:23;12.80;99.90
19058;DHT22;9662;53.612;9.914;2022-10-23T06:01:50;12.80;99.90
19058;DHT22;9662;53.612;9.914;2022-10-23T06:04:16;12.90;99.90
19058;DHT22;9662;53.612;9.914;2022-10-23T06:06:44;12.90;99.90
19058;DHT22;9662;53.612;9.914;2022-10-23T06:09:12;12.80;99.90
19058;DHT22;9662;53.612;9.914;2022-10-23T06:11:40;12.80;99.90
19058;DHT22;9662;53.612;9.914;2022-10-23T06:14:07;12.90;99.90
19058;DHT22;9662;53.612;9.914;2022-10-23T06:16:33;12.90;99.90
19058;DHT22;9662;53.612;9.914;2022-10-23T06:19:00;13.00;99.90
19058;DHT22;9662;53.612;9.914;2022-10-23T06:21:27;12.80;99.90
19058;DHT22;9662;53.612;9.914;2022-10-23T06:23:54;12.90;99.90
19058;DHT22;9662;53.612;9.914;2022-10-23T06:26:21;12.70;99.90
19058;DHT22;9662;53.612;9.914;2022-10-23T06:28:49;12.80;99.90
19058;DHT22;9662;53.612;9.914;2022-10-23T06:31:16;12.90;99.90
19058;DHT22;9662;53.612;9.914;2022-10-23T06:33:44;12.80;99.90
19058;DHT22;9662;53.612;9.914;2022-10-23T06:36:11;12.70;99.90
19058;DHT22;9662;53.612;9.914;2022-10-23T06:38:38;12.80;99.90
19058;DHT22;9662;53.612;9.914;2022-10-23T06:41:06;12.90;99.90
19058;DHT22;9662;53.612;9.914;2022-10-23T06:43:36;13.00;99.90
19058;DHT22;9662;53.612;9.914;2022-10-23T06:46:04;13.00;99.90
19058;DHT22;9662;53.612;9.914;2022-10-23T06:48:31;13.00;99.90
19058;DHT22;9662;53.612;9.914;2022-10-23T06:51:02;13.20;99.90
19058;DHT22;9662;53.612;9.914;2022-10-23T06:53:29;13.20;99.90
19058;DHT22;9662;53.612;9.914;2022-10-23T06:55:58;13.20;99.90
19058;DHT22;9662;53.612;9.914;2022-10-23T06:58:25;13.50;99.90
19058;DHT22;9662;53.612;9.914;2022-10-23T07:00:52;13.20;99.90
19058;DHT22;9662;53.612;9.914;2022-10-23T07:03:21;13.70;99.90
19058;DHT22;9662;53.612;9.914;2022-10-23T07:05:47;13.20;99.90
19058;DHT22;9662;53.612;9.914;2022-10-23T07:08:14;13.40;99.90
19058;DHT22;9662;53.612;9.914;2022-10-23T07:10:41;13.30;99.90
19058;DHT22;9662;53.612;9.914;2022-10-23T07:13:08;13.20;99.90
19058;DHT22;9662;53.612;9.914;2022-10-23T07:15:35;13.20;99.90
19058;DHT22;9662;53.612;9.914;2022-10-23T07:18:02;13.20;99.90
19058;DHT22;9662;53.612;9.914;2022-10-23T07:20:31;13.30;99.90
19058;DHT22;9662;53.612;9.914;2022-10-23T07:22:57;13.40;99.90
19058;DHT22;9662;53.612;9.914;2022-10-23T07:25:25;13.20;99.90
19058;DHT22;9662;53.612;9.914;2022-10-23T07:27:52;13.40;99.90
19058;DHT22;9662;53.612;9.914;2022-10-23T07:30:19;13.20;99.90
19058;DHT22;9662;53.612;9.914;2022-10-23T07:32:46;13.40;99.90
19058;DHT22;9662;53.612;9.914;2022-10-23T07:35:13;13.40;99.90
19058;DHT22;9662;53.612;9.914;2022-10-23T07:37:41;13.50;99.90
19058;DHT22;9662;53.612;9.914;2022-10-23T07:40:08;13.50;99.90
19058;DHT22;9662;53.612;9.914;2022-10-23T07:42:35;13.40;99.90
19058;DHT22;9662;53.612;9.914;2022-10-23T07:45:03;13.50;99.90
19058;DHT22;9662;53.612;9.914;2022-10-23T07:47:32;13.50;99.90
19058;DHT22;9662;53.612;9.914;2022-10-23T07:49:58;13.50;99.90
19058;DHT22;9662;53.612;9.914;2022-10-23T07:52:25;13.70;99.90
19058;DHT22;9662;53.612;9.914;2022-10-23T07:54:53;13.50;99.90
19058;DHT22;9662;53.612;9.914;2022-10-23T07:57:20;13.50;99.90
19058;DHT22;9662;53.612;9.914;2022-10-23T07:59:48;14.00;99.90
19058;DHT22;9662;53.612;9.914;2022-10-23T08:02:15;13.70;99.90
19058;DHT22;9662;53.612;9.914;2022-10-23T08:04:41;13.80;99.90
19058;DHT22;9662;53.612;9.914;2022-10-23T08:07:08;13.60;99.90
19058;DHT22;9662;53.612;9.914;2022-10-23T08:09:35;13.60;99.90
19058;DHT22;9662;53.612;9.914;2022-10-23T08:12:04;14.00;99.90
19058;DHT22;9662;53.612;9.914;2022-10-23T08:14:30;14.20;99.90
19058;DHT22;9662;53.612;9.914;2022-10-23T08:16:57;14.10;99.90
19058;DHT22;9662;53.612;9.914;2022-10-23T08:19:24;14.50;99.90
19058;DHT22;9662;53.612;9.914;2022-10-23T08:21:51;14.40;99.90
19058;DHT22;9662;53.612;9.914;2022-10-23T08:24:19;14.50;99.90
19058;DHT22;9662;53.612;9.914;2022-10-23T08:26:47;14.50;99.90
19058;DHT22;9662;53.612;9.914;2022-10-23T08:29:15;14.60;99.90
19058;DHT22;9662;53.612;9.914;2022-10-23T08:31:42;14.50;99.90
19058;DHT22;9662;53.612;9.914;2022-10-23T08:34:09;14.70;99.90
19058;DHT22;9662;53.612;9.914;2022-10-23T08:36:36;14.90;99.90
19058;DHT22;9662;53.612;9.914;2022-10-23T08:39:04;15.00;99.90
19058;DHT22;9662;53.612;9.914;2022-10-23T08:41:34;14.90;99.90
19058;DHT22;9662;53.612;9.914;2022-10-23T08:44:07;15.20;99.90
19058;DHT22;9662;53.612;9.914;2022-10-23T08:46:39;15.40;99.90
19058;DHT22;9662;53.612;9.914;2022-10-23T08:49:17;15.40;99.90
19058;DHT22;9662;53.612;9.914;2022-10-23T08:51:49;15.40;99.90
19058;DHT22;9662;53.612;9.914;2022-10-23T08:54:19;15.60;99.90
19058;DHT22;9662;53.612;9.914;2022-10-23T08:56:51;15.80;99.90
19058;DHT22;9662;53.612;9.914;2022-10-23T08:59:23;15.90;99.90
19058;DHT22;9662;53.612;9.914;2022-10-23T09:01:57;15.90;99.90
19058;DHT22;9662;53.612;9.914;2022-10-23T09:04:25;16.10;99.90
19058;DHT22;9662;53.612;9.914;2022-10-23T09:06:58;16.00;99.90
19058;DHT22;9662;53.612;9.914;2022-10-23T09:09:49;16.10;99.90
19058;DHT22;9662;53.612;9.914;2022-10-23T09:12:21;16.20;99.90
19058;DHT22;9662;53.612;9.914;2022-10-23T09:15:13;16.10;99.90
19058;DHT22;9662;53.612;9.914;2022-10-23T09:17:45;16.10;99.90
19058;DHT22;9662;53.612;9.914;2022-10-23T09:20:18;16.40;99.90
19058;DHT22;9662;53.612;9.914;2022-10-23T09:22:46;16.30;99.90
19058;DHT22;9662;53.612;9.914;2022-10-23T09:25:17;16.30;99.90
19058;DHT22;9662;53.612;9.914;2022-10-23T09:27:48;16.40;99.90
19058;DHT22;9662;53.612;9.914;2022-10-23T09:30:28;16.50;99.90
19058;DHT22;9662;53.612;9.914;2022-10-23T09:32:58;16.40;99.90
19058;DHT22;9662;53.612;9.914;2022-10-23T09:35:27;16.50;99.90
19058;DHT22;9662;53.612;9.914;2022-10-23T09:37:54;16.50;99.90
19058;DHT22;9662;53.612;9.914;2022-10-23T09:40:28;16.70;99.90
19058;DHT22;9662;53.612;9.914;2022-10-23T09:42:59;16.70;99.90
19058;DHT22;9662;53.612;9.914;2022-10-23T09:45:29;16.70;99.90
19058;DHT22;9662;53.612;9.914;2022-10-23T09:48:11;16.80;99.90
19058;DHT22;9662;53.612;9.914;2022-10-23T09:50:47;17.10;99.90
19058;DHT22;9662;53.612;9.914;2022-10-23T09:53:16;16.90;99.90
19058;DHT22;9662;53.612;9.914;2022-10-23T09:55:51;16.90;99.90
19058;DHT22;9662;53.612;9.914;2022-10-23T09:58:20;17.10;99.90
19058;DHT22;9662;53.612;9.914;2022-10-23T11:40:11;15.20;99.90
19058;DHT22;9662;53.612;9.914;2022-10-23T11:42:47;15.40;99.90
19058;DHT22;9662;53.612;9.914;2022-10-23T11:45:32;15.60;99.90
19058;DHT22;9662;53.612;9.914;2022-10-23T11:48:00;16.20;99.90
19058;DHT22;9662;53.612;9.914;2022-10-23T11:50:32;16.60;99.90
19058;DHT22;9662;53.612;9.914;2022-10-23T11:53:03;17.00;99.90
19058;DHT22;9662;53.612;9.914;2022-10-23T11:55:36;17.30;99.90
19058;DHT22;9662;53.612;9.914;2022-10-23T11:58:18;17.60;99.90
19058;DHT22;9662;53.612;9.914;2022-10-23T12:00:53;17.50;99.90
19058;DHT22;9662;53.612;9.914;2022-10-23T12:03:23;17.70;99.90
19058;DHT22;9662;53.612;9.914;2022-10-23T12:05:58;17.70;99.90
19058;DHT22;9662;53.612;9.914;2022-10-23T12:08:28;17.60;99.90
19058;DHT22;9662;53.612;9.914;2022-10-23T12:10:56;17.60;99.90
19058;DHT22;9662;53.612;9.914;2022-10-23T12:13:42;18.60;99.90
19058;DHT22;9662;53.612;9.914;2022-10-23T12:16:10;18.30;99.90
19058;DHT22;9662;53.612;9.914;2022-10-23T12:18:49;17.90;99.90
19058;DHT22;9662;53.612;9.914;2022-10-23T12:21:20;17.80;99.90
19058;DHT22;9662;53.612;9.914;2022-10-23T12:24:04;17.90;99.90
19058;DHT22;9662;53.612;9.914;2022-10-23T12:26:50;18.00;99.90
19058;DHT22;9662;53.612;9.914;2022-10-23T12:29:27;17.80;99.90
19058;DHT22;9662;53.612;9.914;2022-10-23T12:32:01;17.90;99.90
19058;DHT22;9662;53.612;9.914;2022-10-23T12:34:35;17.90;99.90
19058;DHT22;9662;53.612;9.914;2022-10-23T12:37:23;17.90;99.90
19058;DHT22;9662;53.612;9.914;2022-10-23T12:39:54;18.00;99.90
19058;DHT22;9662;53.612;9.914;2022-10-23T12:42:25;17.90;99.90
19058;DHT22;9662;53.612;9.914;2022-10-23T12:44:59;18.10;99.90
19058;DHT22;9662;53.612;9.914;2022-10-23T12:47:26;18.20;99.90
19058;DHT22;9662;53.612;9.914;2022-10-23T12:49:53;18.00;99.90
19058;DHT22;9662;53.612;9.914;2022-10-23T12:52:21;18.10;99.90
19058;DHT22;9662;53.612;9.914;2022-10-23T12:54:49;18.10;99.90
19058;DHT22;9662;53.612;9.914;2022-10-23T12:57:19;18.30;99.90
19058;DHT22;9662;53.612;9.914;2022-10-23T12:59:48;18.20;99.90
19058;DHT22;9662;53.612;9.914;2022-10-23T13:02:22;18.40;99.90
19058;DHT22;9662;53.612;9.914;2022-10-23T13:04:50;18.40;99.90
19058;DHT22;9662;53.612;9.914;2022-10-23T13:07:19;18.10;99.90
19058;DHT22;9662;53.612;9.914;2022-10-23T13:09:46;18.00;99.90
19058;DHT22;9662;53.612;9.914;2022-10-23T13:12:18;18.20;99.90
19058;DHT22;9662;53.612;9.914;2022-10-23T13:14:59;18.20;99.90
19058;DHT22;9662;53.612;9.914;2022-10-23T13:17:36;17.80;99.90
19058;DHT22;9662;53.612;9.914;2022-10-23T13:20:18;17.90;99.90
19058;DHT22;9662;53.612;9.914;2022-10-23T13:22:46;18.10;99.90
19058;DHT22;9662;53.612;9.914;2022-10-23T13:25:21;18.20;99.90
19058;DHT22;9662;53.612;9.914;2022-10-23T13:27:48;18.40;99.90
19058;DHT22;9662;53.612;9.914;2022-10-23T13:30:32;18.40;99.90
19058;DHT22;9662;53.612;9.914;2022-10-23T13:32:58;18.40;99.90
19058;DHT22;9662;53.612;9.914;2022-10-23T13:35:26;18.30;99.90
19058;DHT22;9662;53.612;9.914;2022-10-23T13:37:52;18.20;99.90
19058;DHT22;9662;53.612;9.914;2022-10-23T13:40:21;18.10;99.90
19058;DHT22;9662;53.612;9.914;2022-10-23T13:42:50;18.20;99.90
19058;DHT22;9662;53.612;9.914;2022-10-23T13:45:20;18.20;99.90
19058;DHT22;9662;53.612;9.914;2022-10-23T13:47:48;17.90;99.90
19058;DHT22;9662;53.612;9.914;2022-10-23T13:50:15;18.20;99.90
19058;DHT22;9662;53.612;9.914;2022-10-23T13:52:42;18.00;99.90
19058;DHT22;9662;53.612;9.914;2022-10-23T13:55:17;19.00;99.90
19058;DHT22;9662;53.612;9.914;2022-10-23T13:57:44;18.10;99.90
19058;DHT22;9662;53.612;9.914;2022-10-23T14:00:12;18.00;99.90
19058;DHT22;9662;53.612;9.914;2022-10-23T14:02:39;18.00;99.90
19058;DHT22;9662;53.612;9.914;2022-10-23T14:05:08;18.20;99.90
19058;DHT22;9662;53.612;9.914;2022-10-23T14:07:35;18.10;99.90
19058;DHT22;9662;53.612;9.914;2022-10-23T14:10:02;18.20;99.90
19058;DHT22;9662;53.612;9.914;2022-10-23T14:12:29;18.20;99.90
19058;DHT22;9662;53.612;9.914;2022-10-23T14:14:55;18.10;99.90
19058;DHT22;9662;53.612;9.914;2022-10-23T14:17:22;18.20;99.90
19058;DHT22;9662;53.612;9.914;2022-10-23T14:19:49;17.90;99.90
19058;DHT22;9662;53.612;9.914;2022-10-23T14:22:17;17.70;99.90
19058;DHT22;9662;53.612;9.914;2022-10-23T14:24:44;17.80;99.90
19058;DHT22;9662;53.612;9.914;2022-10-23T14:27:11;17.60;99.90
19058;DHT22;9662;53.612;9.914;2022-10-23T14:29:39;17.80;99.90
19058;DHT22;9662;53.612;9.914;2022-10-23T14:32:06;17.80;99.90
19058;DHT22;9662;53.612;9.914;2022-10-23T14:34:33;17.90;99.90
19058;DHT22;9662;53.612;9.914;2022-10-23T14:36:59;17.90;99.90
19058;DHT22;9662;53.612;9.914;2022-10-23T14:39:29;18.00;99.90
19058;DHT22;9662;53.612;9.914;2022-10-23T14:41:56;17.90;99.90
19058;DHT22;9662;53.612;9.914;2022-10-23T14:44:22;17.70;99.90
19058;DHT22;9662;53.612;9.914;2022-10-23T14:46:49;17.90;99.90
19058;DHT22;9662;53.612;9.914;2022-10-23T14:49:17;17.80;99.90
19058;DHT22;9662;53.612;9.914;2022-10-23T14:51:43;17.50;99.90
19058;DHT22;9662;53.612;9.914;2022-10-23T14:54:10;17.60;99.90
19058;DHT22;9662;53.612;9.914;2022-10-23T14:56:38;17.60;99.90
19058;DHT22;9662;53.612;9.914;2022-10-23T14:59:05;17.60;99.90
19058;DHT22;9662;53.612;9.914;2022-10-23T15:01:35;17.80;99.90
19058;DHT22;9662;53.612;9.914;2022-10-23T15:04:03;17.80;99.90
19058;DHT22;9662;53.612;9.914;2022-10-23T15:06:32;17.70;99.90
19058;DHT22;9662;53.612;9.914;2022-10-23T15:08:58;17.60;99.90
19058;DHT22;9662;53.612;9.914;2022-10-23T15:11:26;17.50;99.90
19058;DHT22;9662;53.612;9.914;2022-10-23T15:13:54;17.50;99.90
19058;DHT22;9662;53.612;9.914;2022-10-23T15:16:22;17.90;99.90
19058;DHT22;9662;53.612;9.914;2022-10-23T15:18:48;17.30;99.90
19058;DHT22;9662;53.612;9.914;2022-10-23T15:21:15;17.20;99.90
19058;DHT22;9662;53.612;9.914;2022-10-23T15:23:43;16.90;99.90
19058;DHT22;9662;53.612;9.914;2022-10-23T15:26:12;16.90;99.90
19058;DHT22;9662;53.612;9.914;2022-10-23T15:28:44;16.80;99.90
19058;DHT22;9662;53.612;9.914;2022-10-23T15:31:39;16.80;99.90
19058;DHT22;9662;53.612;9.914;2022-10-23T15:34:08;16.60;99.90
19058;DHT22;9662;53.612;9.914;2022-10-23T15:36:35;16.80;99.90
19058;DHT22;9662;53.612;9.914;2022-10-23T15:39:05;16.50;99.90
19058;DHT22;9662;53.612;9.914;2022-10-23T15:41:34;16.70;99.90
19058;DHT22;9662;53.612;9.914;2022-10-23T15:44:01;16.70;99.90
19058;DHT22;9662;53.612;9.914;2022-10-23T15:46:30;16.70;99.90
19058;DHT22;9662;53.612;9.914;2022-10-23T15:48:57;16.80;99.90
19058;DHT22;9662;53.612;9.914;2022-10-23T15:51:24;16.80;99.90
19058;DHT22;9662;53.612;9.914;2022-10-23T15:53:51;16.80;99.90
19058;DHT22;9662;53.612;9.914;2022-10-23T15:56:18;16.80;99.90
19058;DHT22;9662;53.612;9.914;2022-10-23T15:58:45;16.80;99.90
19058;DHT22;9662;53.612;9.914;2022-10-23T16:01:11;16.80;99.90
19058;DHT22;9662;53.612;9.914;2022-10-23T16:03:40;16.80;99.90
19058;DHT22;9662;53.612;9.914;2022-10-23T16:06:08;16.70;99.90
19058;DHT22;9662;53.612;9.914;2022-10-23T16:08:35;16.80;99.90
19058;DHT22;9662;53.612;9.914;2022-10-23T16:11:02;16.70;99.90
19058;DHT22;9662;53.612;9.914;2022-10-23T16:13:29;16.50;99.90
19058;DHT22;9662;53.612;9.914;2022-10-23T16:15:56;16.70;99.90
19058;DHT22;9662;53.612;9.914;2022-10-23T16:18:23;16.60;99.90
19058;DHT22;9662;53.612;9.914;2022-10-23T16:20:51;16.60;99.90
19058;DHT22;9662;53.612;9.914;2022-10-23T16:23:19;16.50;99.90
19058;DHT22;9662;53.612;9.914;2022-10-23T16:25:46;16.60;99.90
19058;DHT22;9662;53.612;9.914;2022-10-23T16:28:12;16.50;99.90
19058;DHT22;9662;53.612;9.914;2022-10-23T16:30:40;16.20;99.90
19058;DHT22;9662;53.612;9.914;2022-10-23T16:33:07;16.50;99.90
19058;DHT22;9662;53.612;9.914;2022-10-23T16:35:34;16.50;99.90
19058;DHT22;9662;53.612;9.914;2022-10-23T16:38:03;16.70;99.90
19058;DHT22;9662;53.612;9.914;2022-10-23T16:40:30;16.50;99.90
19058;DHT22;9662;53.612;9.914;2022-10-23T16:42:56;16.50;99.90
19058;DHT22;9662;53.612;9.914;2022-10-23T16:45:23;16.60;99.90
19058;DHT22;9662;53.612;9.914;2022-10-23T16:47:50;16.60;99.90
19058;DHT22;9662;53.612;9.914;2022-10-23T16:50:17;16.50;99.90
19058;DHT22;9662;53.612;9.914;2022-10-23T16:52:43;16.50;99.90
19058;DHT22;9662;53.612;9.914;2022-10-23T16:55:12;16.50;99.90
19058;DHT22;9662;53.612;9.914;2022-10-23T16:57:38;16.80;99.90
19058;DHT22;9662;53.612;9.914;2022-10-23T17:00:07;16.80;99.90
19058;DHT22;9662;53.612;9.914;2022-10-23T17:02:33;16.70;99.90
19058;DHT22;9662;53.612;9.914;2022-10-23T17:05:00;16.70;99.90
19058;DHT22;9662;53.612;9.914;2022-10-23T17:07:27;16.80;99.90
19058;DHT22;9662;53.612;9.914;2022-10-23T17:09:53;16.70;99.90
19058;DHT22;9662;53.612;9.914;2022-10-23T17:12:22;16.70;99.90
19058;DHT22;9662;53.612;9.914;2022-10-23T17:14:48;16.50;99.90
19058;DHT22;9662;53.612;9.914;2022-10-23T17:17:15;16.50;99.90
19058;DHT22;9662;53.612;9.914;2022-10-23T17:19:42;16.40;99.90
19058;DHT22;9662;53.612;9.914;2022-10-23T17:22:09;16.60;99.90
19058;DHT22;9662;53.612;9.914;2022-10-23T17:24:37;16.60;99.90
19058;DHT22;9662;53.612;9.914;2022-10-23T17:27:04;16.50;99.90
19058;DHT22;9662;53.612;9.914;2022-10-23T17:29:32;16.60;99.90
19058;DHT22;9662;53.612;9.914;2022-10-23T17:32:00;16.30;99.90
19058;DHT22;9662;53.612;9.914;2022-10-23T17:34:27;16.50;99.90
19058;DHT22;9662;53.612;9.914;2022-10-23T17:36:54;16.40;99.90